Time;durP1;ratioP1;P1;durP2;ratioP2;P2;SDS_P1;SDS_P2;PMS_P1;PMS_P2;Temp;Humidity;BMP_temperature;BMP_pressure;BME280_temperature;BME280_humidity;BME280_pressure;Samples;Min_cycle;Max_cycle;Signal;HPM_P1;HPM_P2
2023/07/13 00:02:05;;;;;;;;;;;;;;;19.82;100.00;95668.50;10570117;28;2004;-76
2023/07/13 00:07:09;;;;;;;;;;;;;;;19.86;100.00;95658.53;10562168;27;1864;-76
2023/07/13 00:12:15;;;;;;;;;;;;;;;19.69;100.00;95651.28;10582872;27;1976;-75
2023/07/13 00:17:19;;;;;;;;;;;;;;;19.72;100.00;95647.09;10565816;27;1828;-76
2023/07/13 00:22:25;;;;;;;;;;;;;;;19.98;100.00;95641.41;10543184;27;1827;-78
2023/07/13 00:27:31;;;;;;;;;;;;;;;19.87;100.00;95645.69;10558352;28;2237;-78
2023/07/13 00:32:39;;;;;;;;;;;;;;;19.88;100.00;95644.53;10555106;28;1906;-77
2023/07/13 00:37:43;;;;;;;;;;;;;;;19.86;100.00;95650.34;10543229;28;2016;-75
2023/07/13 00:43:10;;;;;;;;;;;;;;;19.88;100.00;95645.34;10566695;27;1893;-75
2023/07/13 00:48:16;;;;;;;;;;;;;;;19.95;100.00;95647.50;10542588;28;2457;-75
2023/07/13 00:53:23;;;;;;;;;;;;;;;19.84;100.00;95649.84;10558209;28;1984;-75
2023/07/13 00:58:28;;;;;;;;;;;;;;;20.04;100.00;95648.25;10536305;28;1947;-75
2023/07/13 01:03:32;;;;;;;;;;;;;;;19.91;100.00;95650.13;10561384;28;2110;-76
2023/07/13 01:08:44;;;;;;;;;;;;;;;19.81;100.00;95627.94;10568155;27;1961;-75
2023/07/13 01:13:52;;;;;;;;;;;;;;;19.89;100.00;95629.75;10565284;27;1979;-75
2023/07/13 01:18:57;;;;;;;;;;;;;;;19.90;100.00;95615.00;10567855;27;2039;-75
2023/07/13 01:24:04;;;;;;;;;;;;;;;19.82;100.00;95613.16;10565231;27;2428;-76
2023/07/13 01:29:11;;;;;;;;;;;;;;;19.75;100.00;95602.78;10565964;27;2284;-78
2023/07/13 01:34:14;;;;;;;;;;;;;;;19.74;100.00;95603.13;10563927;27;1976;-77
2023/07/13 01:39:20;;;;;;;;;;;;;;;19.54;100.00;95602.00;10569902;27;1961;-77
2023/07/13 01:44:29;;;;;;;;;;;;;;;19.40;100.00;95605.00;10566835;27;4614;-77
2023/07/13 01:49:32;;;;;;;;;;;;;;;18.75;100.00;95626.28;10565480;28;1953;-76
2023/07/13 01:54:36;;;;;;;;;;;;;;;18.30;100.00;95654.00;10548885;28;1990;-76
2023/07/13 01:59:45;;;;;;;;;;;;;;;18.31;100.00;95654.81;10549645;27;2073;-76
2023/07/13 02:04:53;;;;;;;;;;;;;;;18.38;100.00;95663.25;10565649;27;1954;-76
2023/07/13 02:10:00;;;;;;;;;;;;;;;18.48;100.00;95662.13;10564608;27;2004;-76
2023/07/13 02:15:06;;;;;;;;;;;;;;;18.61;100.00;95659.16;10546040;27;2302;-76
2023/07/13 02:20:12;;;;;;;;;;;;;;;18.74;100.00;95659.31;10551586;28;1970;-76
2023/07/13 02:25:18;;;;;;;;;;;;;;;19.02;100.00;95656.88;10564210;27;1977;-77
2023/07/13 02:30:24;;;;;;;;;;;;;;;18.96;100.00;95666.38;10546608;28;1976;-75
2023/07/13 02:35:51;;;;;;;;;;;;;;;18.71;100.00;95687.19;10517280;27;2949;-74
2023/07/13 02:40:54;;;;;;;;;;;;;;;18.58;100.00;95694.44;10498787;28;4493;-77
2023/07/13 02:46:00;;;;;;;;;;;;;;;18.53;100.00;95716.38;10506163;28;2585;-77
2023/07/13 02:51:03;;;;;;;;;;;;;;;18.22;100.00;95722.84;10504286;28;2330;-78
2023/07/13 02:56:05;;;;;;;;;;;;;;;17.97;100.00;95727.22;10508952;28;2367;-77
2023/07/13 03:01:07;;;;;;;;;;;;;;;17.86;100.00;95727.84;10503249;28;1946;-77
2023/07/13 03:06:10;;;;;;;;;;;;;;;17.64;100.00;95723.38;10505356;28;2008;-79
2023/07/13 03:11:13;;;;;;;;;;;;;;;17.79;100.00;95718.25;10512488;28;2093;-77
2023/07/13 03:16:16;;;;;;;;;;;;;;;17.82;100.00;95723.06;10503515;28;2583;-73
2023/07/13 03:21:21;;;;;;;;;;;;;;;17.67;100.00;95736.31;10503298;28;1974;-75
2023/07/13 03:26:23;;;;;;;;;;;;;;;17.58;100.00;95744.47;10500631;28;1981;-76
2023/07/13 03:31:26;;;;;;;;;;;;;;;17.46;100.00;95742.38;10502183;28;1977;-76
2023/07/13 03:36:29;;;;;;;;;;;;;;;17.33;100.00;95737.09;10506141;28;2200;-75
2023/07/13 03:41:31;;;;;;;;;;;;;;;17.61;100.00;95741.09;10504791;28;4497;-76
2023/07/13 03:46:34;;;;;;;;;;;;;;;17.80;100.00;95749.75;10475130;28;2054;-75
2023/07/13 03:51:36;;;;;;;;;;;;;;;17.92;100.00;95743.69;10476587;28;1913;-76
2023/07/13 03:56:39;;;;;;;;;;;;;;;17.97;100.00;95745.44;10474248;28;2286;-74
2023/07/13 04:01:41;;;;;;;;;;;;;;;18.20;100.00;95736.00;10475502;28;1870;-75
2023/07/13 04:06:43;;;;;;;;;;;;;;;18.21;100.00;95740.31;10472744;28;1980;-77
2023/07/13 04:11:46;;;;;;;;;;;;;;;18.41;100.00;95743.47;10466718;28;2284;-76
2023/07/13 04:16:49;;;;;;;;;;;;;;;18.35;100.00;95746.34;10478855;28;1941;-74
2023/07/13 04:21:51;;;;;;;;;;;;;;;18.14;100.00;95761.75;10482618;28;1979;-74
2023/07/13 04:26:54;;;;;;;;;;;;;;;18.04;100.00;95759.38;10484426;28;1937;-75
2023/07/13 04:31:56;;;;;;;;;;;;;;;17.96;100.00;95760.97;10458760;28;2093;-77
2023/07/13 04:36:59;;;;;;;;;;;;;;;18.08;100.00;95761.13;10470365;28;2029;-75
2023/07/13 04:42:01;;;;;;;;;;;;;;;18.55;100.00;95761.19;10471598;28;4546;-75
2023/07/13 04:47:03;;;;;;;;;;;;;;;18.49;100.00;95757.03;10484297;28;2515;-74
2023/07/13 04:52:07;;;;;;;;;;;;;;;18.41;100.00;95765.25;10470037;28;1909;-77
2023/07/13 04:57:09;;;;;;;;;;;;;;;18.57;100.00;95769.03;10474096;28;2029;-77
2023/07/13 05:02:12;;;;;;;;;;;;;;;18.59;100.00;95761.34;10472763;28;1969;-77
2023/07/13 05:07:14;;;;;;;;;;;;;;;18.73;100.00;95772.88;10485938;28;2507;-85
2023/07/13 05:12:16;;;;;;;;;;;;;;;18.77;100.00;95778.47;10481087;28;1975;-82
2023/07/13 05:17:19;;;;;;;;;;;;;;;18.66;100.00;95780.72;10477582;28;1918;-77
2023/07/13 05:22:21;;;;;;;;;;;;;;;18.43;100.00;95787.47;10480079;28;2234;-77
2023/07/13 05:27:24;;;;;;;;;;;;;;;17.85;100.00;95786.09;10477172;28;1844;-77
2023/07/13 05:32:26;;;;;;;;;;;;;;;18.19;100.00;95783.34;10475849;28;1981;-70
2023/07/13 05:37:29;;;;;;;;;;;;;;;18.49;100.00;95783.47;10473401;28;1969;-68
2023/07/13 05:42:32;;;;;;;;;;;;;;;18.49;100.00;95788.91;10475616;28;4486;-69
2023/07/13 05:47:34;;;;;;;;;;;;;;;18.34;100.00;95796.47;10469755;28;2523;-79
2023/07/13 05:52:37;;;;;;;;;;;;;;;18.62;100.00;95793.38;10476304;28;1989;-77
2023/07/13 05:57:44;;;;;;;;;;;;;;;19.16;100.00;95790.97;10479382;28;1993;-81
2023/07/13 06:02:52;;;;;;;;;;;;;;;19.24;100.00;95792.84;10478031;28;2224;-79
2023/07/13 06:07:55;;;;;;;;;;;;;;;19.18;100.00;95794.97;10468840;28;1997;-78
2023/07/13 06:12:59;;;;;;;;;;;;;;;19.11;100.00;95789.22;10474917;28;1941;-80
2023/07/13 06:18:01;;;;;;;;;;;;;;;19.26;100.00;95804.22;10472971;28;2144;-79
2023/07/13 06:23:04;;;;;;;;;;;;;;;19.83;100.00;95802.94;10478801;28;1929;-78
2023/07/13 06:28:06;;;;;;;;;;;;;;;20.42;100.00;95787.22;10476831;28;2306;-77
2023/07/13 06:33:09;;;;;;;;;;;;;;;20.62;100.00;95791.06;10472152;28;1954;-78
2023/07/13 06:38:11;;;;;;;;;;;;;;;20.85;100.00;95799.63;10474406;28;2199;-79
2023/07/13 06:43:13;;;;;;;;;;;;;;;20.82;100.00;95799.53;10474095;28;1901;-79
2023/07/13 06:48:16;;;;;;;;;;;;;;;20.41;100.00;95815.63;10454921;28;2600;-79
2023/07/13 06:53:19;;;;;;;;;;;;;;;20.02;100.00;95808.75;10475703;28;1910;-79
2023/07/13 06:58:24;;;;;;;;;;;;;;;20.24;100.00;95822.06;10471368;28;1973;-79
2023/07/13 07:03:40;;;;;;;;;;;;;;;20.54;100.00;95812.97;10478520;28;1973;-77
2023/07/13 07:08:45;;;;;;;;;;;;;;;20.46;100.00;95818.19;10475666;28;1925;-80
2023/07/13 07:14:03;;;;;;;;;;;;;;;20.84;100.00;95825.38;10470065;28;1963;-77
2023/07/13 07:19:05;;;;;;;;;;;;;;;20.85;100.00;95821.50;10457278;28;2379;-78
2023/07/13 07:24:08;;;;;;;;;;;;;;;20.67;100.00;95817.34;10489853;28;2310;-79
2023/07/13 07:29:10;;;;;;;;;;;;;;;20.58;100.00;95806.50;10476959;28;2156;-81
2023/07/13 07:34:16;;;;;;;;;;;;;;;20.87;100.00;95824.69;10475571;28;1980;-77
2023/07/13 07:39:18;;;;;;;;;;;;;;;20.82;100.00;95822.19;10471948;28;1966;-79
2023/07/13 07:44:20;;;;;;;;;;;;;;;20.55;100.00;95829.03;10468579;28;1914;-79
2023/07/13 07:49:23;;;;;;;;;;;;;;;20.38;100.00;95849.06;10472568;28;1934;-78
2023/07/13 07:54:25;;;;;;;;;;;;;;;20.28;100.00;95848.66;10480624;28;1974;-78
2023/07/13 07:59:48;;;;;;;;;;;;;;;19.49;100.00;95858.47;10475354;28;2508;-77
2023/07/13 08:04:53;;;;;;;;;;;;;;;19.30;100.00;95873.31;10482124;28;2037;-78
2023/07/13 08:09:58;;;;;;;;;;;;;;;19.50;100.00;95879.94;10476222;28;1976;-78
2023/07/13 08:15:01;;;;;;;;;;;;;;;19.41;100.00;95874.53;10474315;28;1977;-78
2023/07/13 08:20:04;;;;;;;;;;;;;;;19.48;100.00;95884.13;10474821;28;1961;-79
2023/07/13 08:25:06;;;;;;;;;;;;;;;19.38;100.00;95880.63;10484221;28;2184;-80
2023/07/13 08:30:08;;;;;;;;;;;;;;;19.21;100.00;95880.69;10475690;28;1997;-78
2023/07/13 08:35:11;;;;;;;;;;;;;;;19.14;100.00;95880.41;10468719;28;1991;-78
2023/07/13 08:40:14;;;;;;;;;;;;;;;19.39;100.00;95893.13;10473069;28;4560;-78
2023/07/13 08:45:16;;;;;;;;;;;;;;;20.11;100.00;95887.81;10473556;28;2017;-77
2023/07/13 08:50:19;;;;;;;;;;;;;;;20.70;100.00;95895.88;10473389;28;2030;-77
2023/07/13 08:55:21;;;;;;;;;;;;;;;21.16;100.00;95891.25;10474238;28;2421;-77
2023/07/13 09:00:23;;;;;;;;;;;;;;;21.33;100.00;95890.31;10462130;28;2025;-77
2023/07/13 09:05:26;;;;;;;;;;;;;;;21.13;100.00;95892.75;10464991;28;2128;-76
2023/07/13 09:10:28;;;;;;;;;;;;;;;20.83;100.00;95886.59;10466744;28;1899;-77
2023/07/13 09:15:31;;;;;;;;;;;;;;;21.23;100.00;95886.81;10467501;28;2176;-77
2023/07/13 09:20:34;;;;;;;;;;;;;;;21.30;100.00;95891.75;10474692;28;1838;-76
2023/07/13 09:25:36;;;;;;;;;;;;;;;21.22;100.00;95890.69;10479297;28;1948;-77
2023/07/13 09:30:39;;;;;;;;;;;;;;;21.48;100.00;95875.94;10461668;28;1901;-76
2023/07/13 09:35:42;;;;;;;;;;;;;;;21.94;100.00;95885.63;10473355;28;2038;-76
2023/07/13 09:40:44;;;;;;;;;;;;;;;22.20;100.00;95893.50;10472329;28;4580;-76
2023/07/13 09:45:47;;;;;;;;;;;;;;;22.03;100.00;95891.78;10470914;28;1902;-77
2023/07/13 09:50:50;;;;;;;;;;;;;;;22.53;100.00;95887.84;10473026;28;2292;-77
2023/07/13 09:55:53;;;;;;;;;;;;;;;22.90;100.00;95890.44;10471098;28;1914;-76
2023/07/13 10:00:55;;;;;;;;;;;;;;;23.34;95.30;95885.75;10461606;28;1962;-77
2023/07/13 10:05:58;;;;;;;;;;;;;;;23.62;90.17;95884.91;10467829;28;1962;-76
2023/07/13 10:11:00;;;;;;;;;;;;;;;23.69;88.33;95880.38;10461864;28;1898;-77
2023/07/13 10:16:05;;;;;;;;;;;;;;;23.52;90.29;95893.63;10460071;28;1907;-77
2023/07/13 10:21:08;;;;;;;;;;;;;;;23.20;88.54;95910.06;10469702;28;1832;-77
2023/07/13 10:26:31;;;;;;;;;;;;;;;22.57;87.31;95909.84;10468578;28;1974;-77
2023/07/13 10:31:34;;;;;;;;;;;;;;;23.84;86.60;95903.47;10465227;28;1894;-78
2023/07/13 10:36:36;;;;;;;;;;;;;;;24.03;92.09;95880.78;10470844;28;1986;-77
2023/07/13 10:41:38;;;;;;;;;;;;;;;25.05;83.32;95886.09;10463859;28;4548;-77
2023/07/13 10:46:41;;;;;;;;;;;;;;;25.37;78.71;95891.41;10465288;28;2354;-77
2023/07/13 10:51:44;;;;;;;;;;;;;;;25.36;79.60;95890.63;10470538;28;1968;-77
2023/07/13 10:56:47;;;;;;;;;;;;;;;24.49;84.75;95892.00;10476296;28;1915;-77
2023/07/13 11:01:53;;;;;;;;;;;;;;;24.33;82.63;95894.81;10481816;28;1871;-77
2023/07/13 11:06:56;;;;;;;;;;;;;;;25.03;81.65;95893.91;10480675;28;1851;-76
2023/07/13 11:11:58;;;;;;;;;;;;;;;24.44;72.39;95911.56;10473396;28;1915;-77
2023/07/13 11:17:01;;;;;;;;;;;;;;;24.18;77.09;95910.19;10477250;28;1973;-78
2023/07/13 11:22:04;;;;;;;;;;;;;;;24.97;70.63;95903.59;10476378;28;1883;-77
2023/07/13 11:27:06;;;;;;;;;;;;;;;25.13;64.37;95904.34;10481118;28;1962;-77
2023/07/13 11:32:08;;;;;;;;;;;;;;;25.07;71.19;95894.81;10475802;28;2204;-77
2023/07/13 11:37:11;;;;;;;;;;;;;;;25.63;65.02;95883.22;10476981;28;1919;-77
2023/07/13 11:42:15;;;;;;;;;;;;;;;24.99;66.91;95876.53;10479157;28;4504;-76
2023/07/13 11:47:20;;;;;;;;;;;;;;;24.27;65.36;95874.25;10452891;28;2470;-77
2023/07/13 11:52:22;;;;;;;;;;;;;;;24.37;73.31;95856.47;10472204;28;1905;-76
2023/07/13 11:57:25;;;;;;;;;;;;;;;24.40;71.73;95861.22;10481960;28;1914;-77
2023/07/13 12:02:27;;;;;;;;;;;;;;;24.12;71.46;95851.19;10475699;28;2016;-76
2023/07/13 12:07:29;;;;;;;;;;;;;;;23.43;74.82;95856.22;10474113;28;1863;-75
2023/07/13 12:12:32;;;;;;;;;;;;;;;23.75;77.32;95850.72;10480473;28;2080;-77
2023/07/13 12:17:34;;;;;;;;;;;;;;;24.98;69.71;95850.19;10475316;28;2198;-77
2023/07/13 12:22:37;;;;;;;;;;;;;;;25.72;70.67;95845.22;10476293;28;1859;-77
2023/07/13 12:27:40;;;;;;;;;;;;;;;25.44;72.72;95836.50;10478122;28;2143;-76
2023/07/13 12:32:42;;;;;;;;;;;;;;;26.12;72.01;95838.38;10471550;28;1931;-76
2023/07/13 12:37:44;;;;;;;;;;;;;;;26.23;65.25;95833.81;10473767;28;2434;-76
2023/07/13 12:42:48;;;;;;;;;;;;;;;25.71;70.72;95840.88;10476922;28;4128;-77
2023/07/13 12:47:50;;;;;;;;;;;;;;;25.96;68.84;95823.94;10447242;28;2597;-76
2023/07/13 12:52:53;;;;;;;;;;;;;;;26.46;73.45;95819.94;10471867;28;1971;-78
2023/07/13 12:57:56;;;;;;;;;;;;;;;26.96;62.59;95828.78;10474107;28;2014;-76
2023/07/13 13:02:58;;;;;;;;;;;;;;;26.97;59.41;95824.06;10473520;28;2024;-78
2023/07/13 13:08:04;;;;;;;;;;;;;;;26.43;63.71;95815.19;10473027;28;1910;-76
2023/07/13 13:13:06;;;;;;;;;;;;;;;26.14;63.16;95809.25;10474359;28;1902;-77
2023/07/13 13:18:09;;;;;;;;;;;;;;;26.04;60.89;95807.19;10471838;28;1943;-79
2023/07/13 13:23:11;;;;;;;;;;;;;;;26.44;57.82;95815.97;10478983;28;1862;-77
2023/07/13 13:28:14;;;;;;;;;;;;;;;25.96;57.09;95812.94;10470697;28;1843;-78
2023/07/13 13:33:17;;;;;;;;;;;;;;;26.39;54.91;95803.28;10460844;28;2453;-78
2023/07/13 13:38:20;;;;;;;;;;;;;;;26.25;55.63;95814.94;10474863;28;2029;-79
2023/07/13 13:43:25;;;;;;;;;;;;;;;25.63;55.30;95816.34;10470512;28;4530;-78
2023/07/13 13:48:30;;;;;;;;;;;;;;;25.66;56.42;95821.13;10467391;28;2413;-77
2023/07/13 13:53:33;;;;;;;;;;;;;;;26.03;56.81;95832.34;10464660;28;2139;-77
2023/07/13 13:58:35;;;;;;;;;;;;;;;26.14;60.44;95834.06;10465505;28;2057;-78
2023/07/13 14:03:37;;;;;;;;;;;;;;;26.56;56.41;95821.25;10472126;28;1890;-76
2023/07/13 14:08:40;;;;;;;;;;;;;;;27.16;55.03;95816.41;10472603;28;2215;-76
2023/07/13 14:13:42;;;;;;;;;;;;;;;27.43;55.21;95811.53;10471686;28;1934;-76
2023/07/13 14:18:45;;;;;;;;;;;;;;;27.92;54.17;95810.34;10471647;28;1946;-76
2023/07/13 14:23:47;;;;;;;;;;;;;;;28.07;53.55;95804.91;10468953;28;1919;-76
2023/07/13 14:28:50;;;;;;;;;;;;;;;28.33;54.26;95804.69;10471324;28;1920;-76
2023/07/13 14:33:52;;;;;;;;;;;;;;;28.06;53.31;95800.53;10466218;28;1907;-76
2023/07/13 14:38:55;;;;;;;;;;;;;;;27.03;55.82;95806.00;10476471;28;1981;-76
2023/07/13 14:43:57;;;;;;;;;;;;;;;26.88;54.96;95808.63;10461331;28;4641;-76
2023/07/13 14:49:00;;;;;;;;;;;;;;;26.46;58.26;95808.91;10469467;28;2752;-76
2023/07/13 14:54:02;;;;;;;;;;;;;;;26.69;54.91;95811.56;10472044;28;1985;-75
2023/07/13 14:59:06;;;;;;;;;;;;;;;26.67;56.78;95813.91;10463099;28;1922;-77
2023/07/13 15:04:09;;;;;;;;;;;;;;;26.03;59.78;95799.28;10463849;28;1850;-77
2023/07/13 15:09:11;;;;;;;;;;;;;;;26.45;58.51;95806.53;10466068;28;1903;-77
2023/07/13 15:14:14;;;;;;;;;;;;;;;26.56;55.89;95802.75;10462766;28;2154;-78
2023/07/13 15:19:16;;;;;;;;;;;;;;;26.46;59.45;95797.09;10475213;28;1886;-76
2023/07/13 15:24:20;;;;;;;;;;;;;;;26.73;55.47;95790.34;10462156;28;1875;-76
2023/07/13 15:29:23;;;;;;;;;;;;;;;26.49;54.08;95796.34;10464423;28;2127;-76
2023/07/13 15:34:25;;;;;;;;;;;;;;;26.23;54.62;95797.97;10469302;28;1906;-75
2023/07/13 15:39:31;;;;;;;;;;;;;;;26.45;55.06;95798.28;10474779;28;1965;-77
2023/07/13 15:44:34;;;;;;;;;;;;;;;25.66;57.42;95794.41;10474136;28;2441;-77
2023/07/13 15:49:36;;;;;;;;;;;;;;;26.12;55.68;95789.56;10472588;28;1922;-75
2023/07/13 15:54:39;;;;;;;;;;;;;;;25.60;57.37;95801.38;10472146;28;2033;-76
2023/07/13 15:59:42;;;;;;;;;;;;;;;25.57;58.75;95791.09;10470376;28;2225;-76
2023/07/13 16:04:45;;;;;;;;;;;;;;;25.88;60.22;95793.56;10477920;28;2216;-76
2023/07/13 16:09:48;;;;;;;;;;;;;;;26.06;57.44;95798.53;10476160;28;1923;-76
2023/07/13 16:14:50;;;;;;;;;;;;;;;25.95;63.90;95790.13;10473467;28;1935;-72
2023/07/13 16:19:56;;;;;;;;;;;;;;;25.50;61.94;95794.53;10469893;28;2083;-72
2023/07/13 16:25:00;;;;;;;;;;;;;;;25.20;67.66;95804.66;10473316;28;2263;-73
2023/07/13 16:30:04;;;;;;;;;;;;;;;24.80;67.18;95805.88;10474397;28;2018;-72
2023/07/13 16:35:08;;;;;;;;;;;;;;;24.49;69.66;95812.34;10474588;28;1911;-73
2023/07/13 16:40:10;;;;;;;;;;;;;;;24.34;70.94;95816.75;10472795;28;4675;-73
2023/07/13 16:45:13;;;;;;;;;;;;;;;24.25;71.51;95816.94;10475034;28;2564;-72
2023/07/13 16:50:15;;;;;;;;;;;;;;;23.97;71.66;95811.63;10452625;28;1888;-72
2023/07/13 16:55:22;;;;;;;;;;;;;;;24.06;71.31;95805.94;10474212;28;1985;-71
2023/07/13 17:00:27;;;;;;;;;;;;;;;24.22;66.54;95808.63;10475404;28;1887;-72
2023/07/13 17:05:30;;;;;;;;;;;;;;;24.06;70.77;95811.44;10463262;28;1978;-71
2023/07/13 17:10:32;;;;;;;;;;;;;;;24.16;68.52;95816.34;10464114;28;2005;-71
2023/07/13 17:15:35;;;;;;;;;;;;;;;23.86;68.26;95815.31;10470220;28;1973;-70
2023/07/13 17:20:42;;;;;;;;;;;;;;;23.36;69.18;95814.09;10471193;28;2428;-71
2023/07/13 17:25:44;;;;;;;;;;;;;;;23.51;70.68;95816.03;10476791;28;1891;-73
2023/07/13 17:30:48;;;;;;;;;;;;;;;24.03;70.67;95814.88;10470253;28;2119;-72
2023/07/13 17:35:50;;;;;;;;;;;;;;;23.77;71.37;95811.94;10466992;28;1977;-72
2023/07/13 17:40:53;;;;;;;;;;;;;;;23.53;74.13;95816.44;10462950;28;4529;-70
2023/07/13 17:45:55;;;;;;;;;;;;;;;23.28;77.31;95820.53;10471105;28;1910;-73
2023/07/13 17:50:58;;;;;;;;;;;;;;;23.37;76.46;95826.66;10467342;28;1890;-72
2023/07/13 17:56:05;;;;;;;;;;;;;;;23.33;77.19;95823.81;10466263;28;1973;-73
2023/07/13 18:01:07;;;;;;;;;;;;;;;22.96;79.85;95820.50;10461422;28;1962;-73
2023/07/13 18:06:10;;;;;;;;;;;;;;;22.97;78.91;95824.88;10472996;28;2074;-74
2023/07/13 18:11:13;;;;;;;;;;;;;;;22.78;82.74;95824.72;10473069;28;1824;-77
2023/07/13 18:16:16;;;;;;;;;;;;;;;22.64;85.69;95834.13;10473746;28;2284;-73
2023/07/13 18:21:18;;;;;;;;;;;;;;;22.55;87.08;95836.22;10467284;28;1930;-72
2023/07/13 18:26:21;;;;;;;;;;;;;;;22.30;90.57;95842.94;10465625;28;2030;-72
2023/07/13 18:31:23;;;;;;;;;;;;;;;22.34;91.18;95846.59;10464012;28;1878;-71
2023/07/13 18:36:26;;;;;;;;;;;;;;;22.43;90.72;95840.97;10464751;28;1930;-72
2023/07/13 18:41:30;;;;;;;;;;;;;;;22.30;91.84;95845.69;10465442;28;4529;-72
2023/07/13 18:46:35;;;;;;;;;;;;;;;22.29;93.21;95844.09;10475709;28;1937;-72
2023/07/13 18:51:37;;;;;;;;;;;;;;;21.88;96.99;95850.63;10466644;28;2167;-72
2023/07/13 18:56:39;;;;;;;;;;;;;;;21.81;99.11;95851.22;10469006;28;2008;-73
2023/07/13 19:01:42;;;;;;;;;;;;;;;21.65;98.33;95859.31;10456670;28;2009;-72
2023/07/13 19:06:45;;;;;;;;;;;;;;;21.57;100.00;95861.03;10466231;28;1966;-72
2023/07/13 19:11:49;;;;;;;;;;;;;;;21.62;100.00;95860.00;10474470;28;2424;-71
2023/07/13 19:16:52;;;;;;;;;;;;;;;21.42;100.00;95853.50;10469003;28;1981;-73
2023/07/13 19:21:56;;;;;;;;;;;;;;;21.28;100.00;95858.47;10477667;28;1863;-72
2023/07/13 19:26:58;;;;;;;;;;;;;;;21.13;100.00;95870.88;10473539;28;1890;-69
2023/07/13 19:32:00;;;;;;;;;;;;;;;21.39;100.00;95878.00;10460047;28;2394;-71
2023/07/13 19:37:04;;;;;;;;;;;;;;;21.21;100.00;95893.78;10486086;28;1921;-71
2023/07/13 19:42:06;;;;;;;;;;;;;;;20.99;100.00;95892.22;10476683;28;2103;-72
2023/07/13 19:47:09;;;;;;;;;;;;;;;21.35;100.00;95910.69;10474436;28;2018;-72
2023/07/13 19:52:12;;;;;;;;;;;;;;;21.46;100.00;95917.31;10471276;28;2127;-70
2023/07/13 19:57:14;;;;;;;;;;;;;;;21.34;100.00;95920.03;10470818;28;2188;-70
2023/07/13 20:02:17;;;;;;;;;;;;;;;21.27;100.00;95928.75;10469918;28;2003;-69
2023/07/13 20:07:20;;;;;;;;;;;;;;;21.17;100.00;95931.09;10467052;28;2082;-71
2023/07/13 20:12:25;;;;;;;;;;;;;;;21.27;100.00;95926.03;10471466;28;1985;-71
2023/07/13 20:17:27;;;;;;;;;;;;;;;21.23;100.00;95940.69;10461739;28;2357;-71
2023/07/13 20:22:30;;;;;;;;;;;;;;;21.28;100.00;95943.22;10476977;28;2376;-71
2023/07/13 20:27:33;;;;;;;;;;;;;;;21.09;100.00;95945.66;10471213;28;1936;-73
2023/07/13 20:32:36;;;;;;;;;;;;;;;20.97;100.00;95943.69;10450073;28;2237;-71
2023/07/13 20:37:39;;;;;;;;;;;;;;;20.91;100.00;95951.28;10474059;28;1960;-71
2023/07/13 20:42:41;;;;;;;;;;;;;;;20.87;100.00;95957.78;10473361;28;4588;-71
2023/07/13 20:47:43;;;;;;;;;;;;;;;20.63;100.00;95955.72;10481734;28;1960;-71
2023/07/13 20:52:48;;;;;;;;;;;;;;;20.73;100.00;95960.75;10482526;28;1966;-71
2023/07/13 20:57:50;;;;;;;;;;;;;;;20.73;100.00;95964.28;10457560;28;2002;-72
2023/07/13 21:02:53;;;;;;;;;;;;;;;20.49;100.00;95966.91;10470358;28;2073;-70
2023/07/13 21:07:55;;;;;;;;;;;;;;;20.30;100.00;95977.44;10473048;28;2290;-69
2023/07/13 21:12:57;;;;;;;;;;;;;;;20.36;100.00;95976.94;10466273;28;2330;-70
2023/07/13 21:18:00;;;;;;;;;;;;;;;20.33;100.00;95980.31;10474073;28;1961;-70
2023/07/13 21:23:02;;;;;;;;;;;;;;;20.25;100.00;95983.91;10474006;28;1957;-70
2023/07/13 21:28:05;;;;;;;;;;;;;;;20.17;100.00;95992.94;10465680;28;2172;-70
2023/07/13 21:33:07;;;;;;;;;;;;;;;20.15;100.00;95978.81;10460140;28;1962;-70
2023/07/13 21:38:10;;;;;;;;;;;;;;;20.11;100.00;95972.44;10467788;28;1977;-71
2023/07/13 21:43:12;;;;;;;;;;;;;;;19.96;100.00;95981.94;10455188;28;4624;-70
2023/07/13 21:48:15;;;;;;;;;;;;;;;19.85;100.00;95981.53;10464993;28;2000;-70
2023/07/13 21:53:17;;;;;;;;;;;;;;;19.89;100.00;95982.47;10475786;28;2005;-70
2023/07/13 21:58:20;;;;;;;;;;;;;;;19.84;100.00;95985.38;10472904;28;1968;-70
2023/07/13 22:03:22;;;;;;;;;;;;;;;19.82;100.00;95986.84;10468960;28;2145;-70
2023/07/13 22:08:25;;;;;;;;;;;;;;;20.02;100.00;95988.81;10468141;28;1905;-68
2023/07/13 22:13:28;;;;;;;;;;;;;;;19.92;100.00;95992.75;10468188;28;1947;-70
2023/07/13 22:18:32;;;;;;;;;;;;;;;19.97;100.00;95992.53;10475429;28;2182;-71
2023/07/13 22:23:42;;;;;;;;;;;;;;;19.97;100.00;95989.78;10467670;28;1902;-70
2023/07/13 22:28:45;;;;;;;;;;;;;;;19.97;100.00;95973.44;10471967;28;1932;-69
2023/07/13 22:33:47;;;;;;;;;;;;;;;19.90;100.00;95977.81;10472993;28;1850;-70
2023/07/13 22:38:50;;;;;;;;;;;;;;;19.74;100.00;95974.84;10476757;28;2127;-69
2023/07/13 22:43:53;;;;;;;;;;;;;;;19.75;100.00;95986.53;10469492;28;4600;-69
2023/07/13 22:48:56;;;;;;;;;;;;;;;19.58;100.00;95981.94;10467596;28;1933;-69
2023/07/13 22:53:58;;;;;;;;;;;;;;;19.50;100.00;95977.28;10479246;28;1909;-69
2023/07/13 22:59:01;;;;;;;;;;;;;;;19.37;100.00;95974.44;10474613;28;2360;-68
2023/07/13 23:04:03;;;;;;;;;;;;;;;19.43;100.00;95975.88;10471511;28;1955;-68
2023/07/13 23:09:07;;;;;;;;;;;;;;;19.15;100.00;95980.13;10471267;28;2099;-68
2023/07/13 23:14:10;;;;;;;;;;;;;;;19.14;100.00;95981.22;10478204;28;1914;-70
2023/07/13 23:19:13;;;;;;;;;;;;;;;18.89;100.00;95989.13;10478925;28;2054;-68
2023/07/13 23:24:16;;;;;;;;;;;;;;;18.76;100.00;95992.78;10483360;28;1886;-70
2023/07/13 23:29:19;;;;;;;;;;;;;;;18.55;100.00;95986.34;10481465;28;1922;-68
2023/07/13 23:34:21;;;;;;;;;;;;;;;18.41;100.00;96005.53;10477013;28;1915;-68
2023/07/13 23:39:24;;;;;;;;;;;;;;;18.40;100.00;95997.69;10485317;28;1987;-69
2023/07/13 23:44:27;;;;;;;;;;;;;;;18.46;100.00;96004.59;10474901;28;4550;-69
2023/07/13 23:49:29;;;;;;;;;;;;;;;18.48;100.00;95989.53;10483769;28;1927;-69
2023/07/13 23:54:32;;;;;;;;;;;;;;;18.42;100.00;95995.44;10473545;28;2381;-70
2023/07/13 23:59:34;;;;;;;;;;;;;;;18.54;100.00;95984.75;10476045;28;1906;-69
